sensor_id;sensor_type;location;lat;lon;timestamp;P1;durP1;ratioP1;P2;durP2;ratioP2
809;SDS011;387;48.772;9.186;2022-09-01T00:01:33;32.40;;;21.00;;
809;SDS011;387;48.772;9.186;2022-09-01T00:04:03;34.27;;;20.70;;
809;SDS011;387;48.772;9.186;2022-09-01T00:06:31;32.90;;;20.27;;
809;SDS011;387;48.772;9.186;2022-09-01T00:08:59;34.23;;;21.27;;
809;SDS011;387;48.772;9.186;2022-09-01T00:11:28;28.60;;;18.60;;
809;SDS011;387;48.772;9.186;2022-09-01T00:13:55;32.30;;;21.00;;
809;SDS011;387;48.772;9.186;2022-09-01T00:16:21;32.23;;;19.50;;
809;SDS011;387;48.772;9.186;2022-09-01T00:18:49;35.23;;;20.93;;
809;SDS011;387;48.772;9.186;2022-09-01T00:21:18;31.20;;;18.50;;
809;SDS011;387;48.772;9.186;2022-09-01T00:23:49;38.77;;;21.90;;
809;SDS011;387;48.772;9.186;2022-09-01T00:26:15;31.30;;;19.40;;
809;SDS011;387;48.772;9.186;2022-09-01T00:28:40;30.50;;;17.70;;
809;SDS011;387;48.772;9.186;2022-09-01T00:31:06;31.67;;;18.83;;
809;SDS011;387;48.772;9.186;2022-09-01T00:33:34;25.17;;;16.93;;
809;SDS011;387;48.772;9.186;2022-09-01T00:36:00;29.33;;;19.07;;
809;SDS011;387;48.772;9.186;2022-09-01T00:38:26;31.73;;;20.00;;
809;SDS011;387;48.772;9.186;2022-09-01T00:40:53;33.27;;;18.90;;
809;SDS011;387;48.772;9.186;2022-09-01T00:43:37;28.97;;;17.63;;
809;SDS011;387;48.772;9.186;2022-09-01T00:46:11;30.47;;;19.80;;
809;SDS011;387;48.772;9.186;2022-09-01T00:48:45;30.83;;;18.77;;
809;SDS011;387;48.772;9.186;2022-09-01T00:51:15;28.13;;;19.40;;
809;SDS011;387;48.772;9.186;2022-09-01T00:53:41;30.30;;;18.23;;
809;SDS011;387;48.772;9.186;2022-09-01T00:56:08;28.57;;;18.17;;
809;SDS011;387;48.772;9.186;2022-09-01T00:58:34;29.13;;;18.00;;
809;SDS011;387;48.772;9.186;2022-09-01T01:01:01;29.63;;;18.30;;
809;SDS011;387;48.772;9.186;2022-09-01T01:03:28;26.67;;;16.53;;
809;SDS011;387;48.772;9.186;2022-09-01T01:05:54;23.37;;;16.40;;
809;SDS011;387;48.772;9.186;2022-09-01T01:08:23;26.97;;;16.63;;
809;SDS011;387;48.772;9.186;2022-09-01T01:11:01;31.73;;;19.00;;
809;SDS011;387;48.772;9.186;2022-09-01T01:14:03;36.33;;;17.77;;
809;SDS011;387;48.772;9.186;2022-09-01T01:16:37;29.20;;;18.57;;
809;SDS011;387;48.772;9.186;2022-09-01T01:25:52;28.20;;;16.77;;
809;SDS011;387;48.772;9.186;2022-09-01T01:30:51;30.27;;;18.40;;
809;SDS011;387;48.772;9.186;2022-09-01T01:33:19;30.03;;;18.43;;
809;SDS011;387;48.772;9.186;2022-09-01T01:35:47;31.93;;;19.30;;
809;SDS011;387;48.772;9.186;2022-09-01T01:38:15;30.57;;;18.97;;
809;SDS011;387;48.772;9.186;2022-09-01T01:40:46;30.37;;;19.20;;
809;SDS011;387;48.772;9.186;2022-09-01T01:43:13;37.93;;;23.07;;
809;SDS011;387;48.772;9.186;2022-09-01T01:45:44;33.93;;;20.77;;
809;SDS011;387;48.772;9.186;2022-09-01T01:48:13;37.87;;;20.80;;
809;SDS011;387;48.772;9.186;2022-09-01T01:50:42;33.40;;;19.00;;
809;SDS011;387;48.772;9.186;2022-09-01T01:53:09;29.97;;;18.67;;
809;SDS011;387;48.772;9.186;2022-09-01T01:55:36;30.17;;;17.83;;
809;SDS011;387;48.772;9.186;2022-09-01T01:58:01;30.67;;;18.53;;
809;SDS011;387;48.772;9.186;2022-09-01T02:00:29;28.40;;;17.40;;
809;SDS011;387;48.772;9.186;2022-09-01T02:02:58;23.30;;;14.93;;
809;SDS011;387;48.772;9.186;2022-09-01T02:05:26;26.20;;;17.30;;
809;SDS011;387;48.772;9.186;2022-09-01T02:07:55;25.37;;;16.30;;
809;SDS011;387;48.772;9.186;2022-09-01T02:10:27;28.07;;;16.77;;
809;SDS011;387;48.772;9.186;2022-09-01T02:12:55;23.47;;;15.87;;
809;SDS011;387;48.772;9.186;2022-09-01T02:15:27;24.53;;;15.60;;
809;SDS011;387;48.772;9.186;2022-09-01T02:17:53;28.37;;;17.00;;
809;SDS011;387;48.772;9.186;2022-09-01T02:20:24;28.40;;;16.37;;
809;SDS011;387;48.772;9.186;2022-09-01T02:22:53;30.07;;;18.30;;
809;SDS011;387;48.772;9.186;2022-09-01T02:25:20;31.93;;;20.10;;
809;SDS011;387;48.772;9.186;2022-09-01T02:27:47;33.40;;;19.57;;
809;SDS011;387;48.772;9.186;2022-09-01T02:30:16;33.33;;;18.63;;
809;SDS011;387;48.772;9.186;2022-09-01T02:32:41;29.77;;;18.13;;
809;SDS011;387;48.772;9.186;2022-09-01T02:35:07;30.63;;;18.90;;
809;SDS011;387;48.772;9.186;2022-09-01T02:37:34;33.37;;;18.93;;
809;SDS011;387;48.772;9.186;2022-09-01T02:40:03;34.67;;;21.40;;
809;SDS011;387;48.772;9.186;2022-09-01T02:42:30;26.90;;;17.70;;
809;SDS011;387;48.772;9.186;2022-09-01T02:44:56;34.73;;;19.73;;
809;SDS011;387;48.772;9.186;2022-09-01T02:47:22;31.27;;;17.87;;
809;SDS011;387;48.772;9.186;2022-09-01T02:49:49;31.20;;;20.70;;
809;SDS011;387;48.772;9.186;2022-09-01T02:52:15;29.43;;;17.93;;
809;SDS011;387;48.772;9.186;2022-09-01T02:54:42;31.03;;;18.10;;
809;SDS011;387;48.772;9.186;2022-09-01T02:57:09;30.63;;;19.57;;
809;SDS011;387;48.772;9.186;2022-09-01T02:59:35;30.90;;;18.67;;
809;SDS011;387;48.772;9.186;2022-09-01T03:02:01;33.30;;;19.03;;
809;SDS011;387;48.772;9.186;2022-09-01T03:04:28;32.37;;;19.23;;
809;SDS011;387;48.772;9.186;2022-09-01T03:06:57;31.30;;;18.90;;
809;SDS011;387;48.772;9.186;2022-09-01T03:09:23;35.07;;;21.10;;
809;SDS011;387;48.772;9.186;2022-09-01T03:11:50;29.73;;;19.77;;
809;SDS011;387;48.772;9.186;2022-09-01T03:14:17;30.27;;;17.77;;
809;SDS011;387;48.772;9.186;2022-09-01T03:16:44;31.17;;;18.07;;
809;SDS011;387;48.772;9.186;2022-09-01T03:19:10;30.17;;;18.57;;
809;SDS011;387;48.772;9.186;2022-09-01T03:21:40;32.90;;;20.13;;
809;SDS011;387;48.772;9.186;2022-09-01T03:24:08;34.60;;;18.70;;
809;SDS011;387;48.772;9.186;2022-09-01T03:26:36;32.70;;;19.83;;
809;SDS011;387;48.772;9.186;2022-09-01T03:29:02;32.80;;;19.37;;
809;SDS011;387;48.772;9.186;2022-09-01T03:31:28;34.57;;;18.73;;
809;SDS011;387;48.772;9.186;2022-09-01T03:33:54;33.23;;;18.77;;
809;SDS011;387;48.772;9.186;2022-09-01T03:36:20;29.63;;;18.83;;
809;SDS011;387;48.772;9.186;2022-09-01T03:38:50;36.90;;;20.37;;
809;SDS011;387;48.772;9.186;2022-09-01T03:41:17;34.70;;;21.03;;
809;SDS011;387;48.772;9.186;2022-09-01T03:43:46;31.87;;;18.47;;
809;SDS011;387;48.772;9.186;2022-09-01T03:46:13;40.13;;;21.53;;
809;SDS011;387;48.772;9.186;2022-09-01T03:48:45;36.73;;;21.00;;
809;SDS011;387;48.772;9.186;2022-09-01T03:51:14;32.83;;;18.10;;
809;SDS011;387;48.772;9.186;2022-09-01T03:53:40;31.60;;;19.40;;
809;SDS011;387;48.772;9.186;2022-09-01T03:56:06;38.33;;;21.47;;
809;SDS011;387;48.772;9.186;2022-09-01T03:58:33;30.63;;;18.77;;
809;SDS011;387;48.772;9.186;2022-09-01T04:00:59;36.80;;;21.27;;
809;SDS011;387;48.772;9.186;2022-09-01T04:03:28;42.33;;;25.40;;
809;SDS011;387;48.772;9.186;2022-09-01T04:05:56;38.30;;;21.87;;
809;SDS011;387;48.772;9.186;2022-09-01T04:08:23;37.03;;;20.77;;
809;SDS011;387;48.772;9.186;2022-09-01T04:10:53;35.37;;;20.00;;
809;SDS011;387;48.772;9.186;2022-09-01T04:13:23;28.97;;;19.60;;
809;SDS011;387;48.772;9.186;2022-09-01T04:15:56;34.63;;;20.70;;
809;SDS011;387;48.772;9.186;2022-09-01T04:18:22;32.20;;;18.57;;
809;SDS011;387;48.772;9.186;2022-09-01T04:20:56;40.73;;;21.13;;
809;SDS011;387;48.772;9.186;2022-09-01T04:28:45;33.03;;;19.80;;
809;SDS011;387;48.772;9.186;2022-09-01T04:31:15;31.37;;;18.60;;
809;SDS011;387;48.772;9.186;2022-09-01T04:33:44;38.27;;;21.83;;
809;SDS011;387;48.772;9.186;2022-09-01T04:36:19;33.73;;;20.00;;
809;SDS011;387;48.772;9.186;2022-09-01T04:38:56;36.20;;;20.60;;
809;SDS011;387;48.772;9.186;2022-09-01T04:41:26;37.07;;;20.70;;
809;SDS011;387;48.772;9.186;2022-09-01T04:43:56;42.27;;;23.13;;
809;SDS011;387;48.772;9.186;2022-09-01T04:46:23;40.60;;;22.77;;
809;SDS011;387;48.772;9.186;2022-09-01T04:48:52;39.47;;;21.63;;
809;SDS011;387;48.772;9.186;2022-09-01T04:51:19;35.63;;;19.80;;
809;SDS011;387;48.772;9.186;2022-09-01T04:53:46;39.40;;;21.07;;
809;SDS011;387;48.772;9.186;2022-09-01T04:56:13;38.70;;;19.77;;
809;SDS011;387;48.772;9.186;2022-09-01T04:58:44;39.30;;;20.83;;
809;SDS011;387;48.772;9.186;2022-09-01T05:01:14;32.50;;;20.00;;
809;SDS011;387;48.772;9.186;2022-09-01T05:03:42;38.87;;;23.23;;
809;SDS011;387;48.772;9.186;2022-09-01T05:06:16;35.97;;;20.30;;
809;SDS011;387;48.772;9.186;2022-09-01T05:08:43;37.67;;;21.30;;
809;SDS011;387;48.772;9.186;2022-09-01T05:11:10;34.60;;;20.60;;
809;SDS011;387;48.772;9.186;2022-09-01T05:13:40;35.70;;;20.60;;
809;SDS011;387;48.772;9.186;2022-09-01T05:16:10;32.80;;;19.90;;
809;SDS011;387;48.772;9.186;2022-09-01T05:18:40;34.30;;;20.40;;
809;SDS011;387;48.772;9.186;2022-09-01T05:21:12;33.73;;;21.20;;
809;SDS011;387;48.772;9.186;2022-09-01T05:23:41;33.07;;;19.47;;
809;SDS011;387;48.772;9.186;2022-09-01T05:26:11;33.97;;;19.83;;
809;SDS011;387;48.772;9.186;2022-09-01T05:28:52;33.23;;;18.37;;
809;SDS011;387;48.772;9.186;2022-09-01T05:31:19;35.00;;;20.30;;
809;SDS011;387;48.772;9.186;2022-09-01T05:33:46;43.50;;;22.20;;
809;SDS011;387;48.772;9.186;2022-09-01T05:36:15;31.67;;;19.93;;
809;SDS011;387;48.772;9.186;2022-09-01T05:38:44;33.57;;;20.30;;
809;SDS011;387;48.772;9.186;2022-09-01T05:41:11;35.97;;;19.80;;
809;SDS011;387;48.772;9.186;2022-09-01T05:43:39;38.00;;;22.93;;
809;SDS011;387;48.772;9.186;2022-09-01T05:46:11;37.13;;;23.47;;
809;SDS011;387;48.772;9.186;2022-09-01T05:48:40;39.73;;;22.73;;
809;SDS011;387;48.772;9.186;2022-09-01T05:51:07;35.53;;;21.03;;
809;SDS011;387;48.772;9.186;2022-09-01T05:53:34;33.57;;;21.27;;
809;SDS011;387;48.772;9.186;2022-09-01T05:56:00;37.97;;;22.53;;
809;SDS011;387;48.772;9.186;2022-09-01T05:58:32;36.00;;;20.23;;
809;SDS011;387;48.772;9.186;2022-09-01T06:01:01;31.83;;;20.03;;
809;SDS011;387;48.772;9.186;2022-09-01T06:03:27;38.70;;;22.33;;
809;SDS011;387;48.772;9.186;2022-09-01T06:05:54;36.13;;;22.07;;
809;SDS011;387;48.772;9.186;2022-09-01T06:08:25;36.37;;;21.70;;
809;SDS011;387;48.772;9.186;2022-09-01T06:10:53;37.30;;;21.27;;
809;SDS011;387;48.772;9.186;2022-09-01T06:13:19;36.87;;;22.67;;
809;SDS011;387;48.772;9.186;2022-09-01T06:15:46;41.73;;;23.77;;
809;SDS011;387;48.772;9.186;2022-09-01T06:18:13;40.07;;;23.47;;
809;SDS011;387;48.772;9.186;2022-09-01T06:20:43;41.90;;;23.30;;
809;SDS011;387;48.772;9.186;2022-09-01T06:23:10;36.10;;;20.40;;
809;SDS011;387;48.772;9.186;2022-09-01T06:25:39;33.30;;;20.30;;
809;SDS011;387;48.772;9.186;2022-09-01T06:28:07;32.63;;;20.87;;
809;SDS011;387;48.772;9.186;2022-09-01T06:30:35;41.20;;;21.90;;
809;SDS011;387;48.772;9.186;2022-09-01T06:33:03;37.47;;;22.13;;
809;SDS011;387;48.772;9.186;2022-09-01T06:35:33;38.10;;;20.57;;
809;SDS011;387;48.772;9.186;2022-09-01T06:38:00;37.90;;;20.53;;
809;SDS011;387;48.772;9.186;2022-09-01T06:40:27;42.50;;;22.67;;
809;SDS011;387;48.772;9.186;2022-09-01T06:42:53;41.27;;;21.87;;
809;SDS011;387;48.772;9.186;2022-09-01T06:45:20;40.40;;;21.83;;
809;SDS011;387;48.772;9.186;2022-09-01T06:47:47;41.97;;;23.30;;
809;SDS011;387;48.772;9.186;2022-09-01T06:50:15;37.67;;;22.23;;
809;SDS011;387;48.772;9.186;2022-09-01T06:52:43;41.23;;;22.40;;
809;SDS011;387;48.772;9.186;2022-09-01T06:55:09;38.63;;;21.30;;
809;SDS011;387;48.772;9.186;2022-09-01T06:57:36;39.93;;;22.10;;
809;SDS011;387;48.772;9.186;2022-09-01T07:00:07;31.73;;;19.53;;
809;SDS011;387;48.772;9.186;2022-09-01T07:02:50;33.73;;;19.57;;
809;SDS011;387;48.772;9.186;2022-09-01T07:05:18;38.40;;;19.57;;
809;SDS011;387;48.772;9.186;2022-09-01T07:07:48;31.30;;;19.37;;
809;SDS011;387;48.772;9.186;2022-09-01T07:10:18;33.10;;;18.77;;
809;SDS011;387;48.772;9.186;2022-09-01T07:12:52;31.90;;;18.80;;
809;SDS011;387;48.772;9.186;2022-09-01T07:15:25;33.83;;;18.77;;
809;SDS011;387;48.772;9.186;2022-09-01T07:17:52;33.27;;;20.00;;
809;SDS011;387;48.772;9.186;2022-09-01T07:20:25;39.43;;;20.73;;
809;SDS011;387;48.772;9.186;2022-09-01T07:22:53;33.07;;;18.53;;
809;SDS011;387;48.772;9.186;2022-09-01T07:25:20;35.20;;;18.70;;
809;SDS011;387;48.772;9.186;2022-09-01T07:27:46;34.27;;;19.43;;
809;SDS011;387;48.772;9.186;2022-09-01T07:30:16;30.23;;;17.43;;
809;SDS011;387;48.772;9.186;2022-09-01T07:32:43;31.63;;;17.83;;
809;SDS011;387;48.772;9.186;2022-09-01T07:35:10;32.07;;;18.93;;
809;SDS011;387;48.772;9.186;2022-09-01T07:37:37;32.03;;;18.10;;
809;SDS011;387;48.772;9.186;2022-09-01T07:40:05;28.33;;;17.30;;
809;SDS011;387;48.772;9.186;2022-09-01T07:42:32;31.73;;;18.17;;
809;SDS011;387;48.772;9.186;2022-09-01T07:44:59;24.93;;;16.40;;
809;SDS011;387;48.772;9.186;2022-09-01T07:47:24;25.97;;;16.20;;
809;SDS011;387;48.772;9.186;2022-09-01T07:49:53;25.87;;;16.20;;
809;SDS011;387;48.772;9.186;2022-09-01T07:52:19;25.97;;;16.47;;
809;SDS011;387;48.772;9.186;2022-09-01T07:54:45;31.67;;;16.73;;
809;SDS011;387;48.772;9.186;2022-09-01T07:57:11;21.70;;;13.70;;
809;SDS011;387;48.772;9.186;2022-09-01T07:59:36;21.50;;;14.20;;
809;SDS011;387;48.772;9.186;2022-09-01T08:02:03;22.80;;;14.90;;
809;SDS011;387;48.772;9.186;2022-09-01T08:04:29;24.67;;;14.40;;
809;SDS011;387;48.772;9.186;2022-09-01T08:06:56;22.50;;;14.93;;
809;SDS011;387;48.772;9.186;2022-09-01T08:09:22;19.27;;;13.07;;
809;SDS011;387;48.772;9.186;2022-09-01T08:11:47;22.90;;;12.30;;
809;SDS011;387;48.772;9.186;2022-09-01T08:14:13;22.80;;;13.27;;
809;SDS011;387;48.772;9.186;2022-09-01T08:16:39;17.43;;;11.10;;
809;SDS011;387;48.772;9.186;2022-09-01T08:19:05;17.50;;;11.40;;
809;SDS011;387;48.772;9.186;2022-09-01T08:21:30;24.67;;;13.90;;
809;SDS011;387;48.772;9.186;2022-09-01T08:23:56;18.37;;;11.77;;
809;SDS011;387;48.772;9.186;2022-09-01T08:26:23;17.00;;;11.30;;
809;SDS011;387;48.772;9.186;2022-09-01T08:28:49;15.70;;;10.70;;
809;SDS011;387;48.772;9.186;2022-09-01T08:31:17;21.50;;;11.67;;
809;SDS011;387;48.772;9.186;2022-09-01T08:33:44;19.20;;;11.40;;
809;SDS011;387;48.772;9.186;2022-09-01T08:36:12;19.77;;;12.20;;
809;SDS011;387;48.772;9.186;2022-09-01T08:38:39;22.03;;;11.77;;
809;SDS011;387;48.772;9.186;2022-09-01T08:41:06;18.10;;;12.37;;
809;SDS011;387;48.772;9.186;2022-09-01T08:44:15;19.13;;;11.30;;
809;SDS011;387;48.772;9.186;2022-09-01T08:46:45;19.37;;;10.67;;
809;SDS011;387;48.772;9.186;2022-09-01T08:49:13;17.63;;;12.07;;
809;SDS011;387;48.772;9.186;2022-09-01T08:54:46;17.00;;;11.10;;
809;SDS011;387;48.772;9.186;2022-09-01T08:57:25;17.70;;;11.80;;
809;SDS011;387;48.772;9.186;2022-09-01T09:00:00;15.73;;;10.77;;
809;SDS011;387;48.772;9.186;2022-09-01T09:08:11;18.83;;;11.60;;
809;SDS011;387;48.772;9.186;2022-09-01T09:11:00;16.03;;;9.57;;
809;SDS011;387;48.772;9.186;2022-09-01T09:13:34;17.90;;;10.10;;
809;SDS011;387;48.772;9.186;2022-09-01T09:18:50;16.97;;;10.10;;
809;SDS011;387;48.772;9.186;2022-09-01T09:21:39;15.20;;;9.73;;
809;SDS011;387;48.772;9.186;2022-09-01T09:24:22;12.10;;;9.37;;
809;SDS011;387;48.772;9.186;2022-09-01T09:26:57;16.00;;;10.47;;
809;SDS011;387;48.772;9.186;2022-09-01T09:29:24;14.90;;;10.63;;
809;SDS011;387;48.772;9.186;2022-09-01T09:32:02;17.50;;;10.50;;
809;SDS011;387;48.772;9.186;2022-09-01T09:34:34;14.17;;;9.23;;
809;SDS011;387;48.772;9.186;2022-09-01T09:37:16;15.33;;;10.10;;
809;SDS011;387;48.772;9.186;2022-09-01T09:39:43;11.93;;;9.20;;
809;SDS011;387;48.772;9.186;2022-09-01T09:42:12;16.17;;;10.40;;
809;SDS011;387;48.772;9.186;2022-09-01T09:44:41;14.40;;;10.87;;
809;SDS011;387;48.772;9.186;2022-09-01T09:47:09;16.00;;;10.47;;
809;SDS011;387;48.772;9.186;2022-09-01T09:50:10;15.00;;;9.43;;
809;SDS011;387;48.772;9.186;2022-09-01T09:52:45;16.43;;;9.90;;
809;SDS011;387;48.772;9.186;2022-09-01T09:55:28;12.00;;;8.83;;
809;SDS011;387;48.772;9.186;2022-09-01T09:57:58;12.67;;;8.77;;
809;SDS011;387;48.772;9.186;2022-09-01T10:00:27;13.70;;;9.30;;
809;SDS011;387;48.772;9.186;2022-09-01T10:03:05;14.53;;;9.40;;
809;SDS011;387;48.772;9.186;2022-09-01T10:05:40;12.13;;;8.83;;
809;SDS011;387;48.772;9.186;2022-09-01T10:08:13;11.43;;;8.00;;
809;SDS011;387;48.772;9.186;2022-09-01T10:11:01;13.60;;;8.70;;
809;SDS011;387;48.772;9.186;2022-09-01T10:13:29;13.20;;;7.83;;
809;SDS011;387;48.772;9.186;2022-09-01T10:15:57;9.80;;;7.73;;
809;SDS011;387;48.772;9.186;2022-09-01T10:18:29;11.57;;;8.67;;
809;SDS011;387;48.772;9.186;2022-09-01T10:21:07;12.37;;;8.27;;
809;SDS011;387;48.772;9.186;2022-09-01T10:23:35;11.80;;;7.67;;
809;SDS011;387;48.772;9.186;2022-09-01T10:26:04;9.83;;;7.23;;
809;SDS011;387;48.772;9.186;2022-09-01T10:28:39;12.93;;;8.90;;
809;SDS011;387;48.772;9.186;2022-09-01T10:31:16;12.07;;;8.47;;
809;SDS011;387;48.772;9.186;2022-09-01T10:33:43;9.20;;;7.10;;
809;SDS011;387;48.772;9.186;2022-09-01T10:36:08;10.60;;;8.20;;
809;SDS011;387;48.772;9.186;2022-09-01T10:38:34;9.43;;;6.93;;
809;SDS011;387;48.772;9.186;2022-09-01T10:41:00;9.57;;;7.47;;
809;SDS011;387;48.772;9.186;2022-09-01T10:48:48;13.13;;;6.73;;
809;SDS011;387;48.772;9.186;2022-09-01T10:53:47;9.20;;;6.70;;
809;SDS011;387;48.772;9.186;2022-09-01T11:04:09;7.10;;;5.90;;
809;SDS011;387;48.772;9.186;2022-09-01T11:06:56;8.73;;;5.50;;
809;SDS011;387;48.772;9.186;2022-09-01T11:15:32;7.43;;;5.57;;
809;SDS011;387;48.772;9.186;2022-09-01T11:18:00;7.60;;;6.27;;
809;SDS011;387;48.772;9.186;2022-09-01T11:20:28;8.90;;;6.00;;
809;SDS011;387;48.772;9.186;2022-09-01T11:23:24;8.20;;;6.60;;
809;SDS011;387;48.772;9.186;2022-09-01T11:25:50;9.20;;;7.50;;
809;SDS011;387;48.772;9.186;2022-09-01T11:30:56;9.40;;;7.10;;
809;SDS011;387;48.772;9.186;2022-09-01T11:36:31;8.60;;;6.67;;
809;SDS011;387;48.772;9.186;2022-09-01T11:47:09;7.50;;;5.67;;
809;SDS011;387;48.772;9.186;2022-09-01T11:52:21;7.17;;;5.13;;
809;SDS011;387;48.772;9.186;2022-09-01T11:54:50;7.03;;;5.30;;
809;SDS011;387;48.772;9.186;2022-09-01T11:59:45;7.30;;;5.37;;
809;SDS011;387;48.772;9.186;2022-09-01T12:02:19;9.20;;;6.53;;
809;SDS011;387;48.772;9.186;2022-09-01T12:04:49;6.93;;;5.77;;
809;SDS011;387;48.772;9.186;2022-09-01T12:07:27;7.50;;;5.27;;
809;SDS011;387;48.772;9.186;2022-09-01T12:10:16;6.50;;;5.50;;
809;SDS011;387;48.772;9.186;2022-09-01T12:12:43;6.70;;;5.50;;
809;SDS011;387;48.772;9.186;2022-09-01T12:15:22;6.20;;;4.90;;
809;SDS011;387;48.772;9.186;2022-09-01T12:17:49;6.77;;;5.33;;
809;SDS011;387;48.772;9.186;2022-09-01T12:20:20;6.40;;;5.23;;
809;SDS011;387;48.772;9.186;2022-09-01T12:22:47;7.53;;;5.83;;
809;SDS011;387;48.772;9.186;2022-09-01T12:27:52;7.77;;;5.80;;
809;SDS011;387;48.772;9.186;2022-09-01T12:30:19;6.00;;;5.30;;
809;SDS011;387;48.772;9.186;2022-09-01T12:32:45;6.70;;;5.00;;
809;SDS011;387;48.772;9.186;2022-09-01T12:35:25;7.93;;;5.33;;
809;SDS011;387;48.772;9.186;2022-09-01T12:37:51;7.87;;;6.00;;
809;SDS011;387;48.772;9.186;2022-09-01T12:40:36;7.10;;;5.90;;
809;SDS011;387;48.772;9.186;2022-09-01T12:43:02;9.17;;;6.43;;
809;SDS011;387;48.772;9.186;2022-09-01T12:45:44;8.47;;;5.70;;
809;SDS011;387;48.772;9.186;2022-09-01T12:51:00;8.90;;;5.70;;
809;SDS011;387;48.772;9.186;2022-09-01T12:53:52;6.10;;;5.27;;
809;SDS011;387;48.772;9.186;2022-09-01T12:56:22;6.17;;;5.50;;
809;SDS011;387;48.772;9.186;2022-09-01T12:59:02;6.83;;;5.57;;
809;SDS011;387;48.772;9.186;2022-09-01T13:01:44;9.37;;;6.37;;
809;SDS011;387;48.772;9.186;2022-09-01T13:04:23;6.13;;;5.30;;
809;SDS011;387;48.772;9.186;2022-09-01T13:06:58;5.87;;;4.60;;
809;SDS011;387;48.772;9.186;2022-09-01T13:09:26;5.97;;;4.63;;
809;SDS011;387;48.772;9.186;2022-09-01T13:12:00;5.70;;;4.67;;
809;SDS011;387;48.772;9.186;2022-09-01T13:14:39;6.77;;;5.50;;
809;SDS011;387;48.772;9.186;2022-09-01T13:17:05;7.30;;;5.90;;
809;SDS011;387;48.772;9.186;2022-09-01T13:19:31;7.97;;;5.30;;
809;SDS011;387;48.772;9.186;2022-09-01T13:21:56;6.37;;;5.07;;
809;SDS011;387;48.772;9.186;2022-09-01T13:24:22;7.57;;;6.17;;
809;SDS011;387;48.772;9.186;2022-09-01T13:26:47;11.00;;;6.10;;
809;SDS011;387;48.772;9.186;2022-09-01T13:29:19;6.10;;;5.33;;
809;SDS011;387;48.772;9.186;2022-09-01T13:31:45;8.07;;;6.20;;
809;SDS011;387;48.772;9.186;2022-09-01T13:34:10;7.17;;;5.80;;
809;SDS011;387;48.772;9.186;2022-09-01T13:36:36;8.03;;;6.23;;
809;SDS011;387;48.772;9.186;2022-09-01T13:39:02;5.70;;;5.43;;
809;SDS011;387;48.772;9.186;2022-09-01T13:41:27;6.63;;;5.50;;
809;SDS011;387;48.772;9.186;2022-09-01T13:43:55;6.97;;;6.13;;
809;SDS011;387;48.772;9.186;2022-09-01T13:46:21;8.67;;;6.37;;
809;SDS011;387;48.772;9.186;2022-09-01T13:48:47;7.83;;;5.53;;
809;SDS011;387;48.772;9.186;2022-09-01T13:51:22;6.53;;;5.30;;
809;SDS011;387;48.772;9.186;2022-09-01T13:53:51;7.00;;;5.90;;
809;SDS011;387;48.772;9.186;2022-09-01T13:56:17;8.70;;;6.40;;
809;SDS011;387;48.772;9.186;2022-09-01T13:58:43;6.10;;;4.50;;
809;SDS011;387;48.772;9.186;2022-09-01T14:01:08;6.13;;;5.40;;
809;SDS011;387;48.772;9.186;2022-09-01T14:03:34;6.27;;;4.77;;
809;SDS011;387;48.772;9.186;2022-09-01T14:05:59;6.70;;;5.03;;
809;SDS011;387;48.772;9.186;2022-09-01T14:08:25;8.67;;;5.90;;
809;SDS011;387;48.772;9.186;2022-09-01T14:10:51;5.50;;;5.10;;
809;SDS011;387;48.772;9.186;2022-09-01T14:13:19;7.90;;;5.70;;
809;SDS011;387;48.772;9.186;2022-09-01T14:15:45;7.23;;;6.00;;
809;SDS011;387;48.772;9.186;2022-09-01T14:18:12;7.10;;;5.40;;
809;SDS011;387;48.772;9.186;2022-09-01T14:20:40;11.23;;;5.77;;
809;SDS011;387;48.772;9.186;2022-09-01T14:23:08;7.37;;;5.90;;
809;SDS011;387;48.772;9.186;2022-09-01T14:25:35;7.13;;;5.57;;
809;SDS011;387;48.772;9.186;2022-09-01T14:28:05;6.23;;;5.30;;
809;SDS011;387;48.772;9.186;2022-09-01T14:30:31;8.70;;;6.37;;
809;SDS011;387;48.772;9.186;2022-09-01T14:32:59;8.00;;;5.07;;
809;SDS011;387;48.772;9.186;2022-09-01T14:35:25;7.10;;;6.10;;
809;SDS011;387;48.772;9.186;2022-09-01T14:37:52;7.27;;;5.97;;
809;SDS011;387;48.772;9.186;2022-09-01T14:40:19;5.00;;;4.70;;
809;SDS011;387;48.772;9.186;2022-09-01T14:42:47;6.37;;;4.40;;
809;SDS011;387;48.772;9.186;2022-09-01T14:45:20;5.20;;;4.90;;
809;SDS011;387;48.772;9.186;2022-09-01T14:47:48;5.60;;;4.90;;
809;SDS011;387;48.772;9.186;2022-09-01T14:50:15;5.97;;;5.30;;
809;SDS011;387;48.772;9.186;2022-09-01T14:52:43;5.77;;;5.20;;
809;SDS011;387;48.772;9.186;2022-09-01T14:55:09;6.03;;;4.67;;
809;SDS011;387;48.772;9.186;2022-09-01T14:57:35;6.33;;;5.23;;
809;SDS011;387;48.772;9.186;2022-09-01T15:00:00;5.67;;;4.70;;
809;SDS011;387;48.772;9.186;2022-09-01T15:02:27;10.67;;;5.17;;
809;SDS011;387;48.772;9.186;2022-09-01T15:04:53;4.70;;;4.40;;
809;SDS011;387;48.772;9.186;2022-09-01T15:07:19;4.90;;;4.03;;
809;SDS011;387;48.772;9.186;2022-09-01T15:09:45;5.37;;;4.10;;
809;SDS011;387;48.772;9.186;2022-09-01T15:12:11;7.43;;;5.23;;
809;SDS011;387;48.772;9.186;2022-09-01T15:14:36;5.87;;;4.10;;
809;SDS011;387;48.772;9.186;2022-09-01T15:17:02;5.30;;;5.00;;
809;SDS011;387;48.772;9.186;2022-09-01T15:19:28;5.90;;;4.23;;
809;SDS011;387;48.772;9.186;2022-09-01T15:21:54;4.80;;;4.20;;
809;SDS011;387;48.772;9.186;2022-09-01T15:24:20;5.80;;;4.27;;
809;SDS011;387;48.772;9.186;2022-09-01T15:26:47;5.60;;;4.27;;
809;SDS011;387;48.772;9.186;2022-09-01T15:29:13;5.37;;;5.00;;
809;SDS011;387;48.772;9.186;2022-09-01T15:31:39;6.30;;;5.00;;
809;SDS011;387;48.772;9.186;2022-09-01T15:34:05;6.97;;;4.53;;
809;SDS011;387;48.772;9.186;2022-09-01T15:36:33;7.53;;;5.50;;
809;SDS011;387;48.772;9.186;2022-09-01T15:39:00;5.13;;;4.90;;
809;SDS011;387;48.772;9.186;2022-09-01T15:41:26;5.53;;;5.00;;
809;SDS011;387;48.772;9.186;2022-09-01T15:43:55;6.27;;;5.27;;
809;SDS011;387;48.772;9.186;2022-09-01T15:46:21;6.87;;;5.40;;
809;SDS011;387;48.772;9.186;2022-09-01T15:48:47;7.27;;;4.37;;
809;SDS011;387;48.772;9.186;2022-09-01T15:53:59;8.73;;;5.60;;
809;SDS011;387;48.772;9.186;2022-09-01T15:56:35;5.27;;;4.67;;
809;SDS011;387;48.772;9.186;2022-09-01T15:59:02;6.93;;;5.47;;
809;SDS011;387;48.772;9.186;2022-09-01T16:01:30;4.67;;;4.40;;
809;SDS011;387;48.772;9.186;2022-09-01T16:03:57;5.33;;;4.33;;
809;SDS011;387;48.772;9.186;2022-09-01T16:06:23;5.40;;;4.80;;
809;SDS011;387;48.772;9.186;2022-09-01T16:08:50;5.80;;;5.20;;
809;SDS011;387;48.772;9.186;2022-09-01T16:11:18;5.63;;;4.87;;
809;SDS011;387;48.772;9.186;2022-09-01T16:13:44;5.50;;;4.50;;
809;SDS011;387;48.772;9.186;2022-09-01T16:19:05;5.93;;;5.17;;
809;SDS011;387;48.772;9.186;2022-09-01T16:22:01;5.30;;;4.90;;
809;SDS011;387;48.772;9.186;2022-09-01T16:24:39;5.80;;;4.47;;
809;SDS011;387;48.772;9.186;2022-09-01T16:27:09;5.07;;;4.80;;
809;SDS011;387;48.772;9.186;2022-09-01T16:29:40;6.30;;;5.20;;
809;SDS011;387;48.772;9.186;2022-09-01T16:32:10;10.20;;;5.10;;
809;SDS011;387;48.772;9.186;2022-09-01T16:34:36;7.07;;;5.63;;
809;SDS011;387;48.772;9.186;2022-09-01T16:40:00;6.43;;;4.83;;
809;SDS011;387;48.772;9.186;2022-09-01T16:42:39;7.70;;;5.17;;
809;SDS011;387;48.772;9.186;2022-09-01T16:48:04;6.53;;;5.50;;
809;SDS011;387;48.772;9.186;2022-09-01T16:50:55;9.60;;;5.60;;
809;SDS011;387;48.772;9.186;2022-09-01T16:53:46;6.30;;;5.10;;
809;SDS011;387;48.772;9.186;2022-09-01T17:05:25;9.00;;;6.47;;
809;SDS011;387;48.772;9.186;2022-09-01T17:08:13;6.77;;;5.20;;
809;SDS011;387;48.772;9.186;2022-09-01T17:16:00;10.63;;;5.60;;
809;SDS011;387;48.772;9.186;2022-09-01T17:18:38;8.33;;;6.30;;
809;SDS011;387;48.772;9.186;2022-09-01T17:21:15;6.70;;;5.80;;